sensor_id;sensor_type;location;lat;lon;timestamp;pressure;altitude;pressure_sealevel;temperature;humidity
67517;BME280;54359;59.124;37.910;2022-11-20T00:01:32;100620.09;;;-9.15;84.97
67517;BME280;54359;59.124;37.910;2022-11-20T00:03:58;100623.28;;;-9.16;84.85
67517;BME280;54359;59.124;37.910;2022-11-20T00:06:25;100625.06;;;-9.15;85.01
67517;BME280;54359;59.124;37.910;2022-11-20T00:08:54;100614.78;;;-9.18;85.60
67517;BME280;54359;59.124;37.910;2022-11-20T00:11:22;100622.41;;;-9.16;85.17
67517;BME280;54359;59.124;37.910;2022-11-20T00:13:51;100624.03;;;-9.17;84.86
67517;BME280;54359;59.124;37.910;2022-11-20T00:16:20;100617.28;;;-9.18;85.01
67517;BME280;54359;59.124;37.910;2022-11-20T00:18:46;100616.41;;;-9.18;85.05
67517;BME280;54359;59.124;37.910;2022-11-20T00:21:17;100614.34;;;-9.22;84.39
67517;BME280;54359;59.124;37.910;2022-11-20T00:23:44;100621.22;;;-9.20;84.51
67517;BME280;54359;59.124;37.910;2022-11-20T00:26:12;100616.09;;;-9.21;84.50
67517;BME280;54359;59.124;37.910;2022-11-20T00:28:39;100614.19;;;-9.24;85.14
67517;BME280;54359;59.124;37.910;2022-11-20T00:31:13;100613.75;;;-9.20;84.77
67517;BME280;54359;59.124;37.910;2022-11-20T00:33:42;100597.50;;;-9.25;84.78
67517;BME280;54359;59.124;37.910;2022-11-20T00:36:11;100602.47;;;-9.25;84.56
67517;BME280;54359;59.124;37.910;2022-11-20T00:38:38;100610.41;;;-9.20;84.95
67517;BME280;54359;59.124;37.910;2022-11-20T00:41:07;100602.94;;;-9.20;85.19
67517;BME280;54359;59.124;37.910;2022-11-20T00:43:33;100610.41;;;-9.20;85.16
67517;BME280;54359;59.124;37.910;2022-11-20T00:46:00;100596.16;;;-9.21;84.79
67517;BME280;54359;59.124;37.910;2022-11-20T00:48:26;100600.59;;;-9.19;85.18
67517;BME280;54359;59.124;37.910;2022-11-20T00:50:53;100600.59;;;-9.19;85.10
67517;BME280;54359;59.124;37.910;2022-11-20T00:53:19;100588.16;;;-9.19;85.30
67517;BME280;54359;59.124;37.910;2022-11-20T00:56:03;100593.41;;;-9.16;84.82
67517;BME280;54359;59.124;37.910;2022-11-20T00:58:35;100593.13;;;-9.19;85.32
67517;BME280;54359;59.124;37.910;2022-11-20T01:01:03;100588.16;;;-9.19;84.92
67517;BME280;54359;59.124;37.910;2022-11-20T01:03:37;100589.59;;;-9.21;85.27
67517;BME280;54359;59.124;37.910;2022-11-20T01:06:06;100581.09;;;-9.23;84.63
67517;BME280;54359;59.124;37.910;2022-11-20T01:08:33;100596.75;;;-9.24;85.39
67517;BME280;54359;59.124;37.910;2022-11-20T01:11:08;100584.16;;;-9.25;85.17
67517;BME280;54359;59.124;37.910;2022-11-20T01:13:34;100580.50;;;-9.29;84.94
67517;BME280;54359;59.124;37.910;2022-11-20T01:16:12;100570.81;;;-9.35;84.99
67517;BME280;54359;59.124;37.910;2022-11-20T01:18:39;100559.69;;;-9.38;85.32
67517;BME280;54359;59.124;37.910;2022-11-20T01:21:12;100557.63;;;-9.42;85.35
67517;BME280;54359;59.124;37.910;2022-11-20T01:23:40;100590.00;;;-9.34;85.49
67517;BME280;54359;59.124;37.910;2022-11-20T01:26:10;100576.22;;;-9.39;85.71
67517;BME280;54359;59.124;37.910;2022-11-20T01:28:40;100591.44;;;-9.36;85.01
67517;BME280;54359;59.124;37.910;2022-11-20T01:33:42;100594.09;;;-9.34;85.15
67517;BME280;54359;59.124;37.910;2022-11-20T01:36:09;100585.44;;;-9.38;85.26
67517;BME280;54359;59.124;37.910;2022-11-20T01:38:38;100603.03;;;-9.27;85.85
67517;BME280;54359;59.124;37.910;2022-11-20T01:41:04;100593.81;;;-9.28;85.44
67517;BME280;54359;59.124;37.910;2022-11-20T01:43:31;100599.41;;;-9.22;85.48
67517;BME280;54359;59.124;37.910;2022-11-20T01:46:17;100598.53;;;-9.23;85.54
67517;BME280;54359;59.124;37.910;2022-11-20T01:48:52;100602.94;;;-9.20;85.48
67517;BME280;54359;59.124;37.910;2022-11-20T01:51:33;100615.66;;;-9.17;85.81
67517;BME280;54359;59.124;37.910;2022-11-20T01:54:04;100609.97;;;-9.16;85.59
67517;BME280;54359;59.124;37.910;2022-11-20T01:56:34;100607.75;;;-9.13;85.13
67517;BME280;54359;59.124;37.910;2022-11-20T01:59:04;100609.53;;;-9.12;85.83
67517;BME280;54359;59.124;37.910;2022-11-20T02:01:31;100588.84;;;-9.20;85.51
67517;BME280;54359;59.124;37.910;2022-11-20T02:03:58;100613.66;;;-9.04;85.91
67517;BME280;54359;59.124;37.910;2022-11-20T02:06:29;100612.91;;;-9.03;85.43
67517;BME280;54359;59.124;37.910;2022-11-20T02:08:58;100621.72;;;-8.98;85.73
67517;BME280;54359;59.124;37.910;2022-11-20T02:11:24;100612.94;;;-8.94;85.64
67517;BME280;54359;59.124;37.910;2022-11-20T02:13:50;100616.47;;;-8.92;85.91
67517;BME280;54359;59.124;37.910;2022-11-20T02:16:27;100615.72;;;-8.91;85.83
67517;BME280;54359;59.124;37.910;2022-11-20T02:18:55;100617.50;;;-8.90;85.60
67517;BME280;54359;59.124;37.910;2022-11-20T02:21:27;100605.75;;;-8.91;85.78
67517;BME280;54359;59.124;37.910;2022-11-20T02:23:59;100612.38;;;-8.92;85.87
67517;BME280;54359;59.124;37.910;2022-11-20T02:26:28;100616.16;;;-8.86;85.99
67517;BME280;54359;59.124;37.910;2022-11-20T02:28:55;100605.91;;;-8.89;86.24
67517;BME280;54359;59.124;37.910;2022-11-20T02:31:22;100615.00;;;-8.81;85.69
67517;BME280;54359;59.124;37.910;2022-11-20T02:33:54;100610.75;;;-8.82;85.58
67517;BME280;54359;59.124;37.910;2022-11-20T02:36:20;100607.81;;;-8.78;85.81
67517;BME280;54359;59.124;37.910;2022-11-20T02:38:47;100609.75;;;-8.76;85.74
67517;BME280;54359;59.124;37.910;2022-11-20T02:41:15;100596.81;;;-8.80;86.02
67517;BME280;54359;59.124;37.910;2022-11-20T02:43:41;100593.91;;;-8.85;85.79
67517;BME280;54359;59.124;37.910;2022-11-20T02:46:08;100579.53;;;-8.96;85.53
67517;BME280;54359;59.124;37.910;2022-11-20T02:48:34;100593.59;;;-8.97;85.40
67517;BME280;54359;59.124;37.910;2022-11-20T02:51:00;100586.09;;;-9.05;85.79
67517;BME280;54359;59.124;37.910;2022-11-20T02:53:25;100576.13;;;-9.23;85.21
67517;BME280;54359;59.124;37.910;2022-11-20T02:55:51;100588.00;;;-9.20;84.94
67517;BME280;54359;59.124;37.910;2022-11-20T02:58:17;100597.19;;;-9.28;85.74
67517;BME280;54359;59.124;37.910;2022-11-20T03:00:43;100588.53;;;-9.32;85.46
67517;BME280;54359;59.124;37.910;2022-11-20T03:03:09;100562.00;;;-9.40;85.76
67517;BME280;54359;59.124;37.910;2022-11-20T03:05:35;100566.28;;;-9.30;85.63
67517;BME280;54359;59.124;37.910;2022-11-20T03:08:01;100556.47;;;-9.28;85.58
67517;BME280;54359;59.124;37.910;2022-11-20T03:10:26;100553.25;;;-9.27;85.89
67517;BME280;54359;59.124;37.910;2022-11-20T03:12:55;100558.81;;;-9.21;86.21
67517;BME280;54359;59.124;37.910;2022-11-20T03:15:24;100556.06;;;-9.16;86.35
67517;BME280;54359;59.124;37.910;2022-11-20T03:17:53;100553.72;;;-9.14;86.36
67517;BME280;54359;59.124;37.910;2022-11-20T03:20:20;100560.03;;;-9.09;86.31
67517;BME280;54359;59.124;37.910;2022-11-20T03:22:46;100560.63;;;-9.03;86.01
67517;BME280;54359;59.124;37.910;2022-11-20T03:25:12;100554.31;;;-8.99;86.44
67517;BME280;54359;59.124;37.910;2022-11-20T03:27:38;100553.63;;;-8.98;86.17
67517;BME280;54359;59.124;37.910;2022-11-20T03:30:04;100544.09;;;-9.02;85.95
67517;BME280;54359;59.124;37.910;2022-11-20T03:32:31;100549.94;;;-8.93;86.26
67517;BME280;54359;59.124;37.910;2022-11-20T03:34:56;100544.25;;;-8.92;86.20
67517;BME280;54359;59.124;37.910;2022-11-20T03:37:22;100555.81;;;-8.84;86.50
67517;BME280;54359;59.124;37.910;2022-11-20T03:39:48;100550.25;;;-8.81;86.20
67517;BME280;54359;59.124;37.910;2022-11-20T03:42:14;100542.63;;;-8.83;86.36
67517;BME280;54359;59.124;37.910;2022-11-20T03:44:59;100532.94;;;-8.88;86.38
67517;BME280;54359;59.124;37.910;2022-11-20T03:47:27;100520.22;;;-8.92;85.69
67517;BME280;54359;59.124;37.910;2022-11-20T03:49:54;100505.13;;;-9.02;85.87
67517;BME280;54359;59.124;37.910;2022-11-20T03:52:20;100523.56;;;-8.91;86.06
67517;BME280;54359;59.124;37.910;2022-11-20T03:54:46;100521.66;;;-8.94;86.09
67517;BME280;54359;59.124;37.910;2022-11-20T03:57:12;100511.56;;;-8.95;86.00
67517;BME280;54359;59.124;37.910;2022-11-20T03:59:38;100525.03;;;-8.93;86.08
67517;BME280;54359;59.124;37.910;2022-11-20T04:02:03;100515.50;;;-8.97;86.08
67517;BME280;54359;59.124;37.910;2022-11-20T04:04:33;100497.34;;;-9.05;85.87
67517;BME280;54359;59.124;37.910;2022-11-20T04:06:59;100523.56;;;-9.00;86.86
67517;BME280;54359;59.124;37.910;2022-11-20T04:09:25;100517.41;;;-9.03;85.43
67517;BME280;54359;59.124;37.910;2022-11-20T04:11:51;100512.44;;;-9.03;86.27
67517;BME280;54359;59.124;37.910;2022-11-20T04:14:17;100512.28;;;-9.05;86.23
67517;BME280;54359;59.124;37.910;2022-11-20T04:16:43;100519.47;;;-8.99;86.60
67517;BME280;54359;59.124;37.910;2022-11-20T04:19:14;100516.25;;;-8.98;85.87
67517;BME280;54359;59.124;37.910;2022-11-20T04:21:41;100514.78;;;-8.96;86.04
67517;BME280;54359;59.124;37.910;2022-11-20T04:24:07;100502.19;;;-8.98;86.56
67517;BME280;54359;59.124;37.910;2022-11-20T04:26:34;100500.13;;;-9.02;86.04
67517;BME280;54359;59.124;37.910;2022-11-20T04:29:00;100499.53;;;-8.99;85.87
67517;BME280;54359;59.124;37.910;2022-11-20T04:31:32;100503.06;;;-8.97;85.62
67517;BME280;54359;59.124;37.910;2022-11-20T04:34:03;100499.53;;;-8.99;85.98
67517;BME280;54359;59.124;37.910;2022-11-20T04:36:30;100503.66;;;-9.00;86.04
67517;BME280;54359;59.124;37.910;2022-11-20T04:38:59;100489.88;;;-9.05;86.46
67517;BME280;54359;59.124;37.910;2022-11-20T04:41:28;100499.97;;;-9.03;85.63
67517;BME280;54359;59.124;37.910;2022-11-20T04:43:56;100501.75;;;-9.02;86.14
67517;BME280;54359;59.124;37.910;2022-11-20T04:46:26;100497.78;;;-9.00;86.13
67517;BME280;54359;59.124;37.910;2022-11-20T04:48:52;100501.00;;;-9.01;86.10
67517;BME280;54359;59.124;37.910;2022-11-20T04:51:18;100501.16;;;-9.00;85.98
67517;BME280;54359;59.124;37.910;2022-11-20T04:53:44;100467.03;;;-9.18;86.38
67517;BME280;54359;59.124;37.910;2022-11-20T04:56:12;100501.88;;;-9.01;85.87
67517;BME280;54359;59.124;37.910;2022-11-20T04:58:39;100508.63;;;-9.00;86.05
67517;BME280;54359;59.124;37.910;2022-11-20T05:03:39;100496.03;;;-9.01;86.22
67517;BME280;54359;59.124;37.910;2022-11-20T05:06:06;100498.94;;;-8.97;85.81
67517;BME280;54359;59.124;37.910;2022-11-20T05:08:33;100489.31;;;-9.02;86.19
67517;BME280;54359;59.124;37.910;2022-11-20T05:11:05;100477.56;;;-9.03;85.54
67517;BME280;54359;59.124;37.910;2022-11-20T05:13:31;100490.75;;;-8.96;85.36
67517;BME280;54359;59.124;37.910;2022-11-20T05:16:02;100485.78;;;-8.96;85.83
67517;BME280;54359;59.124;37.910;2022-11-20T05:18:29;100488.13;;;-8.97;85.53
67517;BME280;54359;59.124;37.910;2022-11-20T05:20:56;100482.97;;;-8.99;85.72
67517;BME280;54359;59.124;37.910;2022-11-20T05:23:22;100465.13;;;-9.03;85.62
67517;BME280;54359;59.124;37.910;2022-11-20T05:25:48;100486.22;;;-9.00;85.14
67517;BME280;54359;59.124;37.910;2022-11-20T05:28:17;100477.13;;;-8.99;85.60
67517;BME280;54359;59.124;37.910;2022-11-20T05:30:42;100472.91;;;-9.00;85.65
67517;BME280;54359;59.124;37.910;2022-11-20T05:33:09;100474.03;;;-8.97;86.75
67517;BME280;54359;59.124;37.910;2022-11-20T05:35:35;100460.00;;;-8.96;85.47
67517;BME280;54359;59.124;37.910;2022-11-20T05:38:00;100474.34;;;-8.94;85.71
67517;BME280;54359;59.124;37.910;2022-11-20T05:40:26;100479.34;;;-8.94;85.66
67517;BME280;54359;59.124;37.910;2022-11-20T05:42:52;100473.47;;;-8.94;85.92
67517;BME280;54359;59.124;37.910;2022-11-20T05:45:18;100468.34;;;-8.96;85.75
67517;BME280;54359;59.124;37.910;2022-11-20T05:47:44;100464.53;;;-8.92;85.71
67517;BME280;54359;59.124;37.910;2022-11-20T05:50:10;100467.63;;;-8.86;85.78
67517;BME280;54359;59.124;37.910;2022-11-20T05:52:36;100462.91;;;-8.92;85.95
67517;BME280;54359;59.124;37.910;2022-11-20T05:55:02;100470.38;;;-8.83;86.30
67517;BME280;54359;59.124;37.910;2022-11-20T05:57:27;100457.66;;;-8.86;85.85
67517;BME280;54359;59.124;37.910;2022-11-20T05:59:53;100466.16;;;-8.84;85.95
67517;BME280;54359;59.124;37.910;2022-11-20T06:02:19;100463.06;;;-8.90;85.57
67517;BME280;54359;59.124;37.910;2022-11-20T06:04:45;100469.34;;;-8.85;85.43
67517;BME280;54359;59.124;37.910;2022-11-20T06:07:11;100460.69;;;-8.88;85.55
67517;BME280;54359;59.124;37.910;2022-11-20T06:09:38;100470.09;;;-8.86;86.08
67517;BME280;54359;59.124;37.910;2022-11-20T06:12:04;100473.75;;;-8.82;85.61
67517;BME280;54359;59.124;37.910;2022-11-20T06:14:30;100468.75;;;-8.82;85.82
67517;BME280;54359;59.124;37.910;2022-11-20T06:16:56;100470.53;;;-8.81;85.72
67517;BME280;54359;59.124;37.910;2022-11-20T06:19:22;100455.16;;;-8.86;85.46
67517;BME280;54359;59.124;37.910;2022-11-20T06:21:49;100454.53;;;-8.75;86.73
67517;BME280;54359;59.124;37.910;2022-11-20T06:24:15;100447.38;;;-8.72;86.51
67517;BME280;54359;59.124;37.910;2022-11-20T06:26:41;100465.81;;;-8.61;85.71
67517;BME280;54359;59.124;37.910;2022-11-20T06:29:07;100466.38;;;-8.55;86.09
67517;BME280;54359;59.124;37.910;2022-11-20T06:31:33;100468.56;;;-8.49;86.25
67517;BME280;54359;59.124;37.910;2022-11-20T06:34:04;100460.28;;;-8.39;86.00
67517;BME280;54359;59.124;37.910;2022-11-20T06:36:33;100475.34;;;-8.20;86.68
67517;BME280;54359;59.124;37.910;2022-11-20T06:38:59;100480.31;;;-8.12;86.05
67517;BME280;54359;59.124;37.910;2022-11-20T06:41:32;100479.09;;;-7.98;85.88
67517;BME280;54359;59.124;37.910;2022-11-20T06:44:00;100476.53;;;-7.89;86.21
67517;BME280;54359;59.124;37.910;2022-11-20T06:46:30;100467.72;;;-7.85;86.13
67517;BME280;54359;59.124;37.910;2022-11-20T06:48:56;100457.91;;;-7.93;86.30
67517;BME280;54359;59.124;37.910;2022-11-20T06:51:21;100487.78;;;-7.75;85.70
67517;BME280;54359;59.124;37.910;2022-11-20T06:53:48;100489.94;;;-7.70;86.54
67517;BME280;54359;59.124;37.910;2022-11-20T06:56:14;100481.72;;;-7.69;85.62
67517;BME280;54359;59.124;37.910;2022-11-20T06:58:40;100483.19;;;-7.71;86.33
67517;BME280;54359;59.124;37.910;2022-11-20T07:01:09;100468.38;;;-7.69;86.11
67517;BME280;54359;59.124;37.910;2022-11-20T07:03:35;100466.91;;;-7.76;85.44
67517;BME280;54359;59.124;37.910;2022-11-20T07:06:05;100472.06;;;-7.74;85.82
67517;BME280;54359;59.124;37.910;2022-11-20T07:08:32;100468.53;;;-7.76;86.18
67517;BME280;54359;59.124;37.910;2022-11-20T07:11:04;100463.84;;;-7.73;85.68
67517;BME280;54359;59.124;37.910;2022-11-20T07:13:34;100445.63;;;-7.72;86.78
67517;BME280;54359;59.124;37.910;2022-11-20T07:16:05;100462.25;;;-7.54;87.12
67517;BME280;54359;59.124;37.910;2022-11-20T07:18:33;100444.72;;;-7.45;85.77
67517;BME280;54359;59.124;37.910;2022-11-20T07:21:05;100465.91;;;-7.31;86.95
67517;BME280;54359;59.124;37.910;2022-11-20T07:23:32;100455.59;;;-7.25;86.22
67517;BME280;54359;59.124;37.910;2022-11-20T07:26:06;100447.72;;;-7.30;86.03
67517;BME280;54359;59.124;37.910;2022-11-20T07:28:32;100445.13;;;-7.21;85.59
67517;BME280;54359;59.124;37.910;2022-11-20T07:30:59;100425.97;;;-7.31;86.83
67517;BME280;54359;59.124;37.910;2022-11-20T07:33:36;100446.59;;;-7.04;86.31
67517;BME280;54359;59.124;37.910;2022-11-20T07:36:06;100436.22;;;-7.09;86.90
67517;BME280;54359;59.124;37.910;2022-11-20T07:38:38;100431.94;;;-7.10;86.55
67517;BME280;54359;59.124;37.910;2022-11-20T07:41:13;100372.13;;;-7.38;85.60
67517;BME280;54359;59.124;37.910;2022-11-20T07:43:47;100464.22;;;-6.84;85.33
67517;BME280;54359;59.124;37.910;2022-11-20T07:46:24;100479.59;;;-6.79;86.89
67517;BME280;54359;59.124;37.910;2022-11-20T07:49:15;100439.78;;;-6.97;85.50
67517;BME280;54359;59.124;37.910;2022-11-20T07:51:43;100473.25;;;-6.76;86.26
67517;BME280;54359;59.124;37.910;2022-11-20T07:54:11;100480.06;;;-6.64;85.61
67517;BME280;54359;59.124;37.910;2022-11-20T07:56:56;100463.16;;;-6.67;85.54
67517;BME280;54359;59.124;37.910;2022-11-20T07:59:24;100452.69;;;-6.63;86.26
67517;BME280;54359;59.124;37.910;2022-11-20T08:02:03;100493.72;;;-6.32;86.74
67517;BME280;54359;59.124;37.910;2022-11-20T08:04:34;100464.41;;;-6.43;85.88
67517;BME280;54359;59.124;37.910;2022-11-20T08:07:13;100507.78;;;-6.13;86.73
67517;BME280;54359;59.124;37.910;2022-11-20T08:09:41;100483.50;;;-6.14;86.85
67517;BME280;54359;59.124;37.910;2022-11-20T08:12:20;100494.16;;;-6.07;85.99
67517;BME280;54359;59.124;37.910;2022-11-20T08:15:09;100504.81;;;-5.89;86.98
67517;BME280;54359;59.124;37.910;2022-11-20T08:17:35;100486.41;;;-5.89;86.22
67517;BME280;54359;59.124;37.910;2022-11-20T08:20:04;100492.19;;;-5.80;86.55
67517;BME280;54359;59.124;37.910;2022-11-20T08:22:30;100490.56;;;-5.69;86.35
67517;BME280;54359;59.124;37.910;2022-11-20T08:24:56;100509.88;;;-5.58;86.59
67517;BME280;54359;59.124;37.910;2022-11-20T08:27:27;100488.84;;;-5.60;86.40
67517;BME280;54359;59.124;37.910;2022-11-20T08:30:15;100503.75;;;-5.51;86.08
67517;BME280;54359;59.124;37.910;2022-11-20T08:32:42;100507.88;;;-5.52;86.28
67517;BME280;54359;59.124;37.910;2022-11-20T08:35:08;100508.25;;;-5.57;85.76
67517;BME280;54359;59.124;37.910;2022-11-20T08:37:36;100508.13;;;-5.49;86.62
67517;BME280;54359;59.124;37.910;2022-11-20T08:40:06;100499.88;;;-5.48;86.22
67517;BME280;54359;59.124;37.910;2022-11-20T08:42:56;100495.97;;;-5.44;86.41
67517;BME280;54359;59.124;37.910;2022-11-20T08:45:34;100497.59;;;-5.34;86.07
67517;BME280;54359;59.124;37.910;2022-11-20T08:48:04;100495.72;;;-5.27;86.58
67517;BME280;54359;59.124;37.910;2022-11-20T08:50:37;100504.13;;;-5.16;86.39
67517;BME280;54359;59.124;37.910;2022-11-20T08:53:05;100505.47;;;-5.09;86.26
67517;BME280;54359;59.124;37.910;2022-11-20T08:55:36;100486.56;;;-5.16;85.76
67517;BME280;54359;59.124;37.910;2022-11-20T08:58:17;100472.03;;;-5.20;86.25
67517;BME280;54359;59.124;37.910;2022-11-20T09:00:49;100491.06;;;-5.01;86.01
67517;BME280;54359;59.124;37.910;2022-11-20T09:03:16;100459.38;;;-5.21;86.02
67517;BME280;54359;59.124;37.910;2022-11-20T09:05:43;100433.47;;;-5.32;85.78
67517;BME280;54359;59.124;37.910;2022-11-20T09:08:09;100474.53;;;-4.99;85.47
67517;BME280;54359;59.124;37.910;2022-11-20T09:10:38;100462.50;;;-5.14;85.55
67517;BME280;54359;59.124;37.910;2022-11-20T09:13:40;100493.94;;;-4.97;85.93
67517;BME280;54359;59.124;37.910;2022-11-20T09:16:10;100443.09;;;-5.16;85.96
67517;BME280;54359;59.124;37.910;2022-11-20T09:18:37;100437.09;;;-5.18;85.57
67517;BME280;54359;59.124;37.910;2022-11-20T09:21:29;100481.38;;;-4.87;85.99
67517;BME280;54359;59.124;37.910;2022-11-20T09:23:57;100443.72;;;-5.09;85.63
67517;BME280;54359;59.124;37.910;2022-11-20T09:26:23;100441.44;;;-5.06;85.80
67517;BME280;54359;59.124;37.910;2022-11-20T09:28:49;100442.72;;;-5.11;85.21
67517;BME280;54359;59.124;37.910;2022-11-20T09:31:23;100481.38;;;-4.87;85.66
67517;BME280;54359;59.124;37.910;2022-11-20T09:33:57;100448.34;;;-5.13;85.74
67517;BME280;54359;59.124;37.910;2022-11-20T09:36:26;100469.00;;;-4.95;85.45
67517;BME280;54359;59.124;37.910;2022-11-20T09:38:56;100470.50;;;-4.97;85.54
67517;BME280;54359;59.124;37.910;2022-11-20T09:56:47;100455.88;;;-5.23;84.91
67517;BME280;54359;59.124;37.910;2022-11-20T09:59:46;100455.88;;;-5.23;85.65
67517;BME280;54359;59.124;37.910;2022-11-20T10:05:19;100461.78;;;-5.13;85.38
67517;BME280;54359;59.124;37.910;2022-11-20T10:10:54;100460.75;;;-5.04;85.56
67517;BME280;54359;59.124;37.910;2022-11-20T10:20:00;100450.56;;;-4.86;85.19
67517;BME280;54359;59.124;37.910;2022-11-20T10:25:39;100452.72;;;-4.90;85.80
67517;BME280;54359;59.124;37.910;2022-11-20T10:28:46;100468.59;;;-4.79;85.55
67517;BME280;54359;59.124;37.910;2022-11-20T10:31:38;100431.25;;;-4.87;85.28
67517;BME280;54359;59.124;37.910;2022-11-20T10:34:35;100452.38;;;-4.73;85.19
67517;BME280;54359;59.124;37.910;2022-11-20T10:37:34;100458.88;;;-4.65;85.89
67517;BME280;54359;59.124;37.910;2022-11-20T10:40:43;100467.03;;;-4.57;85.62
67517;BME280;54359;59.124;37.910;2022-11-20T10:43:33;100456.84;;;-4.58;85.65
67517;BME280;54359;59.124;37.910;2022-11-20T10:46:15;100447.13;;;-4.66;86.14
67517;BME280;54359;59.124;37.910;2022-11-20T10:48:46;100421.94;;;-4.77;85.60
67517;BME280;54359;59.124;37.910;2022-11-20T10:51:43;100469.63;;;-4.45;85.28
67517;BME280;54359;59.124;37.910;2022-11-20T10:55:25;100472.88;;;-4.46;85.57
67517;BME280;54359;59.124;37.910;2022-11-20T11:00:40;100469.75;;;-4.54;85.01
67517;BME280;54359;59.124;37.910;2022-11-20T11:03:37;100410.59;;;-4.94;85.20
67517;BME280;54359;59.124;37.910;2022-11-20T11:06:40;100473.69;;;-4.57;85.13
67517;BME280;54359;59.124;37.910;2022-11-20T11:09:43;100477.44;;;-4.62;84.86
67517;BME280;54359;59.124;37.910;2022-11-20T11:12:12;100457.69;;;-4.80;84.74
67517;BME280;54359;59.124;37.910;2022-11-20T11:14:53;100477.72;;;-4.70;85.10
67517;BME280;54359;59.124;37.910;2022-11-20T11:17:34;100459.72;;;-4.86;85.10
67517;BME280;54359;59.124;37.910;2022-11-20T11:20:25;100443.69;;;-4.98;85.30
67517;BME280;54359;59.124;37.910;2022-11-20T11:23:10;100445.56;;;-4.96;85.09
67517;BME280;54359;59.124;37.910;2022-11-20T11:26:00;100484.00;;;-4.75;85.49
67517;BME280;54359;59.124;37.910;2022-11-20T11:29:00;100462.22;;;-4.86;85.12
67517;BME280;54359;59.124;37.910;2022-11-20T11:31:34;100490.78;;;-4.74;85.21
67517;BME280;54359;59.124;37.910;2022-11-20T11:34:07;100460.44;;;-4.87;85.22
67517;BME280;54359;59.124;37.910;2022-11-20T11:36:38;100458.81;;;-4.87;84.96
67517;BME280;54359;59.124;37.910;2022-11-20T11:39:12;100440.56;;;-4.96;85.20
67517;BME280;54359;59.124;37.910;2022-11-20T11:41:40;100490.97;;;-4.60;84.98
67517;BME280;54359;59.124;37.910;2022-11-20T11:44:18;100471.06;;;-4.69;85.36
67517;BME280;54359;59.124;37.910;2022-11-20T11:47:18;100485.22;;;-4.59;85.11
67517;BME280;54359;59.124;37.910;2022-11-20T11:49:48;100489.72;;;-4.55;85.19
67517;BME280;54359;59.124;37.910;2022-11-20T11:52:21;100490.19;;;-4.49;84.87
67517;BME280;54359;59.124;37.910;2022-11-20T11:54:55;100472.03;;;-4.57;85.26
67517;BME280;54359;59.124;37.910;2022-11-20T12:00:12;100476.41;;;-4.54;84.91
67517;BME280;54359;59.124;37.910;2022-11-20T12:03:02;100488.91;;;-4.44;85.01
67517;BME280;54359;59.124;37.910;2022-11-20T12:05:39;100494.56;;;-4.47;85.06
67517;BME280;54359;59.124;37.910;2022-11-20T12:08:23;100484.81;;;-4.54;84.60
67517;BME280;54359;59.124;37.910;2022-11-20T12:11:20;100504.59;;;-4.47;84.74
67517;BME280;54359;59.124;37.910;2022-11-20T12:14:20;100477.31;;;-4.64;84.69
67517;BME280;54359;59.124;37.910;2022-11-20T12:16:52;100470.56;;;-4.65;84.31
67517;BME280;54359;59.124;37.910;2022-11-20T12:19:26;100470.19;;;-4.70;84.38
67517;BME280;54359;59.124;37.910;2022-11-20T12:22:26;100511.38;;;-4.46;84.57
67517;BME280;54359;59.124;37.910;2022-11-20T12:25:27;100513.78;;;-4.47;85.12
67517;BME280;54359;59.124;37.910;2022-11-20T12:28:22;100509.78;;;-4.55;84.76
67517;BME280;54359;59.124;37.910;2022-11-20T12:34:08;100519.88;;;-4.43;84.86
67517;BME280;54359;59.124;37.910;2022-11-20T12:37:22;100467.09;;;-4.77;84.62
67517;BME280;54359;59.124;37.910;2022-11-20T12:43:14;100515.38;;;-4.48;84.72
67517;BME280;54359;59.124;37.910;2022-11-20T12:46:27;100518.66;;;-4.49;84.57
67517;BME280;54359;59.124;37.910;2022-11-20T13:01:00;100471.75;;;-4.82;84.61
67517;BME280;54359;59.124;37.910;2022-11-20T13:03:52;100496.88;;;-4.70;84.69
67517;BME280;54359;59.124;37.910;2022-11-20T13:06:34;100496.38;;;-4.66;84.32
67517;BME280;54359;59.124;37.910;2022-11-20T13:09:15;100500.66;;;-4.65;84.17
67517;BME280;54359;59.124;37.910;2022-11-20T13:20:18;100492.31;;;-4.86;84.23
67517;BME280;54359;59.124;37.910;2022-11-20T13:22:51;100490.31;;;-4.90;84.18
67517;BME280;54359;59.124;37.910;2022-11-20T13:25:32;100498.34;;;-4.94;84.03
67517;BME280;54359;59.124;37.910;2022-11-20T13:28:04;100503.34;;;-4.94;84.32
67517;BME280;54359;59.124;37.910;2022-11-20T13:30:31;100504.97;;;-4.95;84.37
67517;BME280;54359;59.124;37.910;2022-11-20T13:33:09;100489.81;;;-4.96;84.48
67517;BME280;54359;59.124;37.910;2022-11-20T13:36:05;100496.06;;;-4.91;84.48
67517;BME280;54359;59.124;37.910;2022-11-20T13:38:46;100448.34;;;-5.13;84.29
67517;BME280;54359;59.124;37.910;2022-11-20T13:41:53;100487.06;;;-4.99;83.35
67517;BME280;54359;59.124;37.910;2022-11-20T13:44:42;100511.09;;;-4.81;84.34
67517;BME280;54359;59.124;37.910;2022-11-20T13:47:27;100490.41;;;-4.89;83.89
67517;BME280;54359;59.124;37.910;2022-11-20T13:50:03;100462.28;;;-5.07;84.26
67517;BME280;54359;59.124;37.910;2022-11-20T13:56:28;100483.53;;;-4.91;84.68
67517;BME280;54359;59.124;37.910;2022-11-20T13:59:17;100485.38;;;-4.78;84.02
67517;BME280;54359;59.124;37.910;2022-11-20T14:01:51;100452.97;;;-4.97;84.15
67517;BME280;54359;59.124;37.910;2022-11-20T14:04:38;100517.44;;;-4.64;83.79
67517;BME280;54359;59.124;37.910;2022-11-20T14:07:11;100514.06;;;-4.65;84.01
67517;BME280;54359;59.124;37.910;2022-11-20T14:10:24;100505.66;;;-4.65;84.34
67517;BME280;54359;59.124;37.910;2022-11-20T14:13:16;100450.59;;;-5.06;84.29
67517;BME280;54359;59.124;37.910;2022-11-20T14:15:46;100451.72;;;-5.02;83.85
67517;BME280;54359;59.124;37.910;2022-11-20T14:18:20;100517.81;;;-4.59;83.62
67517;BME280;54359;59.124;37.910;2022-11-20T14:20:50;100484.75;;;-4.76;83.72
67517;BME280;54359;59.124;37.910;2022-11-20T14:23:26;100447.06;;;-4.98;83.93